sensor_id;sensor_type;location;lat;lon;timestamp;P1;durP1;ratioP1;P2;durP2;ratioP2
36709;SDS011;22694;51.040;3.684;2023-02-11T00:00:07;3.80;;;1.58;;
36709;SDS011;22694;51.040;3.684;2023-02-11T00:02:34;4.65;;;1.52;;
36709;SDS011;22694;51.040;3.684;2023-02-11T00:04:59;3.20;;;1.27;;
36709;SDS011;22694;51.040;3.684;2023-02-11T00:07:29;3.25;;;1.30;;
36709;SDS011;22694;51.040;3.684;2023-02-11T00:09:58;3.60;;;1.30;;
36709;SDS011;22694;51.040;3.684;2023-02-11T00:12:24;4.55;;;1.30;;
36709;SDS011;22694;51.040;3.684;2023-02-11T00:14:50;2.70;;;1.20;;
36709;SDS011;22694;51.040;3.684;2023-02-11T00:17:15;4.32;;;1.83;;
36709;SDS011;22694;51.040;3.684;2023-02-11T00:19:41;3.83;;;1.75;;
36709;SDS011;22694;51.040;3.684;2023-02-11T00:22:07;2.80;;;1.20;;
36709;SDS011;22694;51.040;3.684;2023-02-11T00:24:34;6.03;;;1.27;;
36709;SDS011;22694;51.040;3.684;2023-02-11T00:27:00;2.75;;;1.45;;
36709;SDS011;22694;51.040;3.684;2023-02-11T00:29:26;5.07;;;1.63;;
36709;SDS011;22694;51.040;3.684;2023-02-11T00:31:52;3.25;;;1.75;;
36709;SDS011;22694;51.040;3.684;2023-02-11T00:34:18;3.78;;;1.65;;
36709;SDS011;22694;51.040;3.684;2023-02-11T00:36:43;3.00;;;1.33;;
36709;SDS011;22694;51.040;3.684;2023-02-11T00:39:09;2.80;;;1.40;;
36709;SDS011;22694;51.040;3.684;2023-02-11T00:41:35;4.47;;;2.05;;
36709;SDS011;22694;51.040;3.684;2023-02-11T00:44:01;3.40;;;1.48;;
36709;SDS011;22694;51.040;3.684;2023-02-11T00:46:27;3.85;;;1.20;;
36709;SDS011;22694;51.040;3.684;2023-02-11T00:48:53;2.55;;;1.35;;
36709;SDS011;22694;51.040;3.684;2023-02-11T00:51:22;4.05;;;1.40;;
36709;SDS011;22694;51.040;3.684;2023-02-11T00:53:48;4.70;;;1.63;;
36709;SDS011;22694;51.040;3.684;2023-02-11T00:56:14;3.03;;;1.38;;
36709;SDS011;22694;51.040;3.684;2023-02-11T00:58:39;4.28;;;1.40;;
36709;SDS011;22694;51.040;3.684;2023-02-11T01:01:05;3.08;;;1.30;;
36709;SDS011;22694;51.040;3.684;2023-02-11T01:03:31;6.00;;;1.67;;
36709;SDS011;22694;51.040;3.684;2023-02-11T01:05:57;6.28;;;1.60;;
36709;SDS011;22694;51.040;3.684;2023-02-11T01:08:23;2.75;;;1.30;;
36709;SDS011;22694;51.040;3.684;2023-02-11T01:11:00;3.20;;;1.30;;
36709;SDS011;22694;51.040;3.684;2023-02-11T01:13:33;3.03;;;1.23;;
36709;SDS011;22694;51.040;3.684;2023-02-11T01:16:01;4.75;;;1.40;;
36709;SDS011;22694;51.040;3.684;2023-02-11T01:18:27;2.45;;;1.40;;
36709;SDS011;22694;51.040;3.684;2023-02-11T01:20:53;3.35;;;1.20;;
36709;SDS011;22694;51.040;3.684;2023-02-11T01:23:19;4.70;;;1.63;;
36709;SDS011;22694;51.040;3.684;2023-02-11T01:25:44;3.20;;;1.73;;
36709;SDS011;22694;51.040;3.684;2023-02-11T01:28:19;2.92;;;1.30;;
36709;SDS011;22694;51.040;3.684;2023-02-11T01:30:46;3.05;;;1.30;;
36709;SDS011;22694;51.040;3.684;2023-02-11T01:33:12;4.03;;;1.52;;
36709;SDS011;22694;51.040;3.684;2023-02-11T01:35:38;4.10;;;1.60;;
36709;SDS011;22694;51.040;3.684;2023-02-11T01:38:05;2.47;;;1.52;;
36709;SDS011;22694;51.040;3.684;2023-02-11T01:40:40;2.38;;;1.52;;
36709;SDS011;22694;51.040;3.684;2023-02-11T01:43:11;4.28;;;1.65;;
36709;SDS011;22694;51.040;3.684;2023-02-11T01:48:09;2.95;;;1.48;;
36709;SDS011;22694;51.040;3.684;2023-02-11T01:50:38;2.80;;;1.60;;
36709;SDS011;22694;51.040;3.684;2023-02-11T01:53:06;3.35;;;1.65;;
36709;SDS011;22694;51.040;3.684;2023-02-11T01:55:52;3.58;;;1.95;;
36709;SDS011;22694;51.040;3.684;2023-02-11T01:58:37;4.72;;;1.83;;
36709;SDS011;22694;51.040;3.684;2023-02-11T02:01:07;4.70;;;1.60;;
36709;SDS011;22694;51.040;3.684;2023-02-11T02:03:35;3.60;;;1.30;;
36709;SDS011;22694;51.040;3.684;2023-02-11T02:06:07;2.38;;;1.50;;
36709;SDS011;22694;51.040;3.684;2023-02-11T02:09:03;3.38;;;1.60;;
36709;SDS011;22694;51.040;3.684;2023-02-11T02:11:32;3.53;;;1.85;;
36709;SDS011;22694;51.040;3.684;2023-02-11T02:13:59;3.33;;;1.48;;
36709;SDS011;22694;51.040;3.684;2023-02-11T02:16:27;2.50;;;1.50;;
36709;SDS011;22694;51.040;3.684;2023-02-11T02:24:26;2.90;;;1.50;;
36709;SDS011;22694;51.040;3.684;2023-02-11T02:33:05;3.97;;;1.48;;
36709;SDS011;22694;51.040;3.684;2023-02-11T02:35:47;2.85;;;1.60;;
36709;SDS011;22694;51.040;3.684;2023-02-11T02:38:33;3.33;;;1.77;;
36709;SDS011;22694;51.040;3.684;2023-02-11T02:43:30;3.67;;;1.70;;
36709;SDS011;22694;51.040;3.684;2023-02-11T02:48:46;2.70;;;1.65;;
36709;SDS011;22694;51.040;3.684;2023-02-11T02:54:09;4.20;;;1.90;;
36709;SDS011;22694;51.040;3.684;2023-02-11T02:57:45;3.22;;;1.88;;
36709;SDS011;22694;51.040;3.684;2023-02-11T03:02:34;3.92;;;1.80;;
36709;SDS011;22694;51.040;3.684;2023-02-11T03:07:57;2.97;;;1.67;;
36709;SDS011;22694;51.040;3.684;2023-02-11T03:10:41;2.78;;;1.75;;
36709;SDS011;22694;51.040;3.684;2023-02-11T03:13:10;3.22;;;1.70;;
36709;SDS011;22694;51.040;3.684;2023-02-11T03:15:41;3.50;;;2.00;;
36709;SDS011;22694;51.040;3.684;2023-02-11T03:18:11;4.35;;;2.17;;
36709;SDS011;22694;51.040;3.684;2023-02-11T03:20:41;3.13;;;2.00;;
36709;SDS011;22694;51.040;3.684;2023-02-11T03:25:47;3.05;;;1.85;;
36709;SDS011;22694;51.040;3.684;2023-02-11T03:29:03;3.28;;;2.00;;
36709;SDS011;22694;51.040;3.684;2023-02-11T03:33:52;3.88;;;2.00;;
36709;SDS011;22694;51.040;3.684;2023-02-11T03:39:05;3.55;;;1.95;;
36709;SDS011;22694;51.040;3.684;2023-02-11T03:41:33;3.20;;;1.95;;
36709;SDS011;22694;51.040;3.684;2023-02-11T03:44:00;4.65;;;2.03;;
36709;SDS011;22694;51.040;3.684;2023-02-11T03:46:28;4.00;;;1.85;;
36709;SDS011;22694;51.040;3.684;2023-02-11T03:48:58;4.28;;;2.28;;
36709;SDS011;22694;51.040;3.684;2023-02-11T03:51:27;2.78;;;1.77;;
36709;SDS011;22694;51.040;3.684;2023-02-11T03:53:55;3.05;;;1.90;;
36709;SDS011;22694;51.040;3.684;2023-02-11T03:56:25;4.18;;;2.03;;
36709;SDS011;22694;51.040;3.684;2023-02-11T03:58:54;3.38;;;2.00;;
36709;SDS011;22694;51.040;3.684;2023-02-11T04:01:19;2.80;;;1.95;;
36709;SDS011;22694;51.040;3.684;2023-02-11T04:03:45;3.08;;;2.00;;
36709;SDS011;22694;51.040;3.684;2023-02-11T04:06:11;3.63;;;1.98;;
36709;SDS011;22694;51.040;3.684;2023-02-11T04:08:37;5.00;;;1.90;;
36709;SDS011;22694;51.040;3.684;2023-02-11T04:11:02;2.65;;;1.85;;
36709;SDS011;22694;51.040;3.684;2023-02-11T04:13:28;4.47;;;2.05;;
36709;SDS011;22694;51.040;3.684;2023-02-11T04:15:54;2.72;;;1.77;;
36709;SDS011;22694;51.040;3.684;2023-02-11T04:18:20;2.38;;;1.98;;
36709;SDS011;22694;51.040;3.684;2023-02-11T04:20:45;2.38;;;1.80;;
36709;SDS011;22694;51.040;3.684;2023-02-11T04:23:12;2.92;;;2.05;;
36709;SDS011;22694;51.040;3.684;2023-02-11T04:25:38;4.60;;;2.00;;
36709;SDS011;22694;51.040;3.684;2023-02-11T04:28:03;2.15;;;1.77;;
36709;SDS011;22694;51.040;3.684;2023-02-11T04:30:29;2.92;;;1.92;;
36709;SDS011;22694;51.040;3.684;2023-02-11T04:32:56;3.13;;;2.15;;
36709;SDS011;22694;51.040;3.684;2023-02-11T04:35:22;4.10;;;2.20;;
36709;SDS011;22694;51.040;3.684;2023-02-11T04:37:48;4.53;;;2.10;;
36709;SDS011;22694;51.040;3.684;2023-02-11T04:40:13;2.50;;;1.95;;
36709;SDS011;22694;51.040;3.684;2023-02-11T04:42:39;2.97;;;2.38;;
36709;SDS011;22694;51.040;3.684;2023-02-11T04:45:05;2.72;;;1.90;;
36709;SDS011;22694;51.040;3.684;2023-02-11T04:47:31;3.30;;;2.10;;
36709;SDS011;22694;51.040;3.684;2023-02-11T04:49:57;4.85;;;2.13;;
36709;SDS011;22694;51.040;3.684;2023-02-11T04:52:23;2.83;;;1.92;;
36709;SDS011;22694;51.040;3.684;2023-02-11T04:54:49;2.80;;;2.00;;
36709;SDS011;22694;51.040;3.684;2023-02-11T04:57:14;3.25;;;1.83;;
36709;SDS011;22694;51.040;3.684;2023-02-11T04:59:40;4.25;;;1.98;;
36709;SDS011;22694;51.040;3.684;2023-02-11T05:02:06;2.67;;;2.10;;
36709;SDS011;22694;51.040;3.684;2023-02-11T05:04:32;3.55;;;2.00;;
36709;SDS011;22694;51.040;3.684;2023-02-11T05:06:57;2.83;;;2.20;;
36709;SDS011;22694;51.040;3.684;2023-02-11T05:09:23;3.08;;;2.20;;
36709;SDS011;22694;51.040;3.684;2023-02-11T05:11:48;2.80;;;2.10;;
36709;SDS011;22694;51.040;3.684;2023-02-11T05:14:14;3.88;;;2.20;;
36709;SDS011;22694;51.040;3.684;2023-02-11T05:16:40;4.22;;;2.42;;
36709;SDS011;22694;51.040;3.684;2023-02-11T05:19:05;3.75;;;2.45;;
36709;SDS011;22694;51.040;3.684;2023-02-11T05:21:31;3.50;;;2.50;;
36709;SDS011;22694;51.040;3.684;2023-02-11T05:23:57;3.58;;;2.22;;
36709;SDS011;22694;51.040;3.684;2023-02-11T05:26:22;3.80;;;1.92;;
36709;SDS011;22694;51.040;3.684;2023-02-11T05:28:48;4.80;;;2.63;;
36709;SDS011;22694;51.040;3.684;2023-02-11T05:31:14;5.50;;;2.72;;
36709;SDS011;22694;51.040;3.684;2023-02-11T05:33:40;2.88;;;1.83;;
36709;SDS011;22694;51.040;3.684;2023-02-11T05:36:08;6.13;;;1.90;;
36709;SDS011;22694;51.040;3.684;2023-02-11T05:38:35;3.70;;;1.50;;
36709;SDS011;22694;51.040;3.684;2023-02-11T05:41:01;2.83;;;1.60;;
36709;SDS011;22694;51.040;3.684;2023-02-11T05:43:27;2.15;;;1.58;;
36709;SDS011;22694;51.040;3.684;2023-02-11T05:45:53;2.38;;;2.00;;
36709;SDS011;22694;51.040;3.684;2023-02-11T05:48:19;3.35;;;2.08;;
36709;SDS011;22694;51.040;3.684;2023-02-11T05:50:45;2.83;;;1.92;;
36709;SDS011;22694;51.040;3.684;2023-02-11T05:53:10;4.95;;;2.20;;
36709;SDS011;22694;51.040;3.684;2023-02-11T05:55:36;4.20;;;2.22;;
36709;SDS011;22694;51.040;3.684;2023-02-11T05:58:02;5.47;;;2.13;;
36709;SDS011;22694;51.040;3.684;2023-02-11T06:00:28;4.05;;;1.98;;
36709;SDS011;22694;51.040;3.684;2023-02-11T06:02:54;2.50;;;1.98;;
36709;SDS011;22694;51.040;3.684;2023-02-11T06:05:20;3.65;;;2.10;;
36709;SDS011;22694;51.040;3.684;2023-02-11T06:07:45;3.72;;;2.42;;
36709;SDS011;22694;51.040;3.684;2023-02-11T06:10:11;3.45;;;2.40;;
36709;SDS011;22694;51.040;3.684;2023-02-11T06:12:37;3.67;;;2.10;;
36709;SDS011;22694;51.040;3.684;2023-02-11T06:15:03;3.58;;;2.50;;
36709;SDS011;22694;51.040;3.684;2023-02-11T06:17:29;3.35;;;2.10;;
36709;SDS011;22694;51.040;3.684;2023-02-11T06:19:58;3.72;;;2.60;;
36709;SDS011;22694;51.040;3.684;2023-02-11T06:22:25;3.83;;;2.47;;
36709;SDS011;22694;51.040;3.684;2023-02-11T06:24:51;3.72;;;2.25;;
36709;SDS011;22694;51.040;3.684;2023-02-11T06:27:17;2.92;;;2.47;;
36709;SDS011;22694;51.040;3.684;2023-02-11T06:29:43;4.80;;;2.60;;
36709;SDS011;22694;51.040;3.684;2023-02-11T06:32:10;3.78;;;2.80;;
36709;SDS011;22694;51.040;3.684;2023-02-11T06:34:35;2.85;;;2.50;;
36709;SDS011;22694;51.040;3.684;2023-02-11T06:37:01;4.13;;;2.80;;
36709;SDS011;22694;51.040;3.684;2023-02-11T06:39:27;4.20;;;3.08;;
36709;SDS011;22694;51.040;3.684;2023-02-11T06:41:52;3.00;;;2.60;;
36709;SDS011;22694;51.040;3.684;2023-02-11T06:44:18;3.70;;;2.88;;
36709;SDS011;22694;51.040;3.684;2023-02-11T06:46:44;4.25;;;2.90;;
36709;SDS011;22694;51.040;3.684;2023-02-11T06:49:10;3.03;;;2.63;;
36709;SDS011;22694;51.040;3.684;2023-02-11T06:51:35;4.07;;;2.88;;
36709;SDS011;22694;51.040;3.684;2023-02-11T06:54:01;3.17;;;2.88;;
36709;SDS011;22694;51.040;3.684;2023-02-11T06:56:28;5.53;;;3.25;;
36709;SDS011;22694;51.040;3.684;2023-02-11T06:58:54;3.90;;;3.05;;
36709;SDS011;22694;51.040;3.684;2023-02-11T07:01:21;5.70;;;3.63;;
36709;SDS011;22694;51.040;3.684;2023-02-11T07:03:47;5.32;;;3.28;;
36709;SDS011;22694;51.040;3.684;2023-02-11T07:06:15;4.40;;;3.17;;
36709;SDS011;22694;51.040;3.684;2023-02-11T07:08:43;3.67;;;3.00;;
36709;SDS011;22694;51.040;3.684;2023-02-11T07:11:14;3.97;;;3.17;;
36709;SDS011;22694;51.040;3.684;2023-02-11T07:13:40;5.18;;;3.67;;
36709;SDS011;22694;51.040;3.684;2023-02-11T07:16:07;4.50;;;3.45;;
36709;SDS011;22694;51.040;3.684;2023-02-11T07:18:35;4.07;;;3.13;;
36709;SDS011;22694;51.040;3.684;2023-02-11T07:21:05;4.85;;;3.13;;
36709;SDS011;22694;51.040;3.684;2023-02-11T07:23:36;4.07;;;2.95;;
36709;SDS011;22694;51.040;3.684;2023-02-11T07:26:04;3.45;;;3.08;;
36709;SDS011;22694;51.040;3.684;2023-02-11T07:28:33;5.80;;;3.17;;
36709;SDS011;22694;51.040;3.684;2023-02-11T07:31:04;4.22;;;3.15;;
36709;SDS011;22694;51.040;3.684;2023-02-11T07:33:34;6.75;;;3.33;;
36709;SDS011;22694;51.040;3.684;2023-02-11T07:36:00;4.35;;;3.30;;
36709;SDS011;22694;51.040;3.684;2023-02-11T07:38:26;4.40;;;3.25;;
36709;SDS011;22694;51.040;3.684;2023-02-11T07:40:52;5.03;;;3.40;;
36709;SDS011;22694;51.040;3.684;2023-02-11T07:43:17;4.63;;;3.35;;
36709;SDS011;22694;51.040;3.684;2023-02-11T07:45:43;3.90;;;3.33;;
36709;SDS011;22694;51.040;3.684;2023-02-11T07:48:09;3.95;;;3.17;;
36709;SDS011;22694;51.040;3.684;2023-02-11T07:50:35;3.97;;;3.58;;
36709;SDS011;22694;51.040;3.684;2023-02-11T07:53:01;3.97;;;3.22;;
36709;SDS011;22694;51.040;3.684;2023-02-11T07:55:27;3.88;;;3.05;;
36709;SDS011;22694;51.040;3.684;2023-02-11T07:57:52;3.47;;;3.13;;
36709;SDS011;22694;51.040;3.684;2023-02-11T08:00:18;4.15;;;3.38;;
36709;SDS011;22694;51.040;3.684;2023-02-11T08:02:44;4.38;;;2.85;;
36709;SDS011;22694;51.040;3.684;2023-02-11T08:05:09;4.80;;;3.05;;
36709;SDS011;22694;51.040;3.684;2023-02-11T08:07:35;4.13;;;3.33;;
36709;SDS011;22694;51.040;3.684;2023-02-11T08:10:01;3.28;;;2.97;;
36709;SDS011;22694;51.040;3.684;2023-02-11T08:12:26;5.32;;;3.22;;
36709;SDS011;22694;51.040;3.684;2023-02-11T08:14:52;4.22;;;3.47;;
36709;SDS011;22694;51.040;3.684;2023-02-11T08:17:17;4.10;;;3.70;;
36709;SDS011;22694;51.040;3.684;2023-02-11T08:19:43;4.03;;;3.30;;
36709;SDS011;22694;51.040;3.684;2023-02-11T08:22:09;4.20;;;3.13;;
36709;SDS011;22694;51.040;3.684;2023-02-11T08:24:34;4.63;;;3.75;;
36709;SDS011;22694;51.040;3.684;2023-02-11T08:27:00;3.38;;;3.08;;
36709;SDS011;22694;51.040;3.684;2023-02-11T08:29:26;3.75;;;2.72;;
36709;SDS011;22694;51.040;3.684;2023-02-11T08:31:51;6.47;;;3.75;;
36709;SDS011;22694;51.040;3.684;2023-02-11T08:34:17;7.50;;;4.38;;
36709;SDS011;22694;51.040;3.684;2023-02-11T08:36:43;10.70;;;4.38;;
36709;SDS011;22694;51.040;3.684;2023-02-11T08:39:12;5.53;;;4.57;;
36709;SDS011;22694;51.040;3.684;2023-02-11T08:41:42;7.73;;;5.17;;
36709;SDS011;22694;51.040;3.684;2023-02-11T08:44:08;5.53;;;4.05;;
36709;SDS011;22694;51.040;3.684;2023-02-11T08:46:34;6.47;;;4.75;;
36709;SDS011;22694;51.040;3.684;2023-02-11T08:49:00;6.43;;;4.30;;
36709;SDS011;22694;51.040;3.684;2023-02-11T08:51:26;7.35;;;4.72;;
36709;SDS011;22694;51.040;3.684;2023-02-11T08:53:54;8.30;;;5.05;;
36709;SDS011;22694;51.040;3.684;2023-02-11T08:56:20;7.22;;;4.68;;
36709;SDS011;22694;51.040;3.684;2023-02-11T08:58:47;6.07;;;5.22;;
36709;SDS011;22694;51.040;3.684;2023-02-11T09:01:14;3.15;;;2.47;;
36709;SDS011;22694;51.040;3.684;2023-02-11T09:03:42;7.18;;;3.60;;
36709;SDS011;22694;51.040;3.684;2023-02-11T09:06:09;6.47;;;3.78;;
36709;SDS011;22694;51.040;3.684;2023-02-11T09:08:36;7.43;;;4.60;;
36709;SDS011;22694;51.040;3.684;2023-02-11T09:11:03;9.57;;;4.45;;
36709;SDS011;22694;51.040;3.684;2023-02-11T09:13:29;7.43;;;4.95;;
36709;SDS011;22694;51.040;3.684;2023-02-11T09:15:56;6.32;;;4.50;;
36709;SDS011;22694;51.040;3.684;2023-02-11T09:18:23;5.18;;;4.45;;
36709;SDS011;22694;51.040;3.684;2023-02-11T09:20:48;5.40;;;4.75;;
36709;SDS011;22694;51.040;3.684;2023-02-11T09:23:14;8.88;;;5.32;;
36709;SDS011;22694;51.040;3.684;2023-02-11T09:25:40;6.78;;;5.43;;
36709;SDS011;22694;51.040;3.684;2023-02-11T09:28:06;8.68;;;5.65;;
36709;SDS011;22694;51.040;3.684;2023-02-11T09:30:34;6.53;;;5.00;;
36709;SDS011;22694;51.040;3.684;2023-02-11T09:33:00;7.63;;;5.00;;
36709;SDS011;22694;51.040;3.684;2023-02-11T09:35:26;7.95;;;5.97;;
36709;SDS011;22694;51.040;3.684;2023-02-11T09:37:52;6.63;;;5.38;;
36709;SDS011;22694;51.040;3.684;2023-02-11T09:40:18;7.03;;;5.22;;
36709;SDS011;22694;51.040;3.684;2023-02-11T09:42:45;6.43;;;5.50;;
36709;SDS011;22694;51.040;3.684;2023-02-11T09:45:19;6.53;;;5.65;;
36709;SDS011;22694;51.040;3.684;2023-02-11T09:47:55;6.70;;;5.70;;
36709;SDS011;22694;51.040;3.684;2023-02-11T09:50:27;7.72;;;5.80;;
36709;SDS011;22694;51.040;3.684;2023-02-11T09:53:01;11.23;;;3.97;;
36709;SDS011;22694;51.040;3.684;2023-02-11T09:55:29;7.10;;;3.63;;
36709;SDS011;22694;51.040;3.684;2023-02-11T09:57:59;4.68;;;3.58;;
36709;SDS011;22694;51.040;3.684;2023-02-11T10:00:35;8.80;;;4.25;;
36709;SDS011;22694;51.040;3.684;2023-02-11T10:03:10;6.95;;;4.25;;
36709;SDS011;22694;51.040;3.684;2023-02-11T10:06:09;6.53;;;4.10;;
36709;SDS011;22694;51.040;3.684;2023-02-11T10:08:51;6.15;;;4.05;;
36709;SDS011;22694;51.040;3.684;2023-02-11T10:11:29;9.00;;;4.70;;
36709;SDS011;22694;51.040;3.684;2023-02-11T10:24:53;7.03;;;5.82;;
36709;SDS011;22694;51.040;3.684;2023-02-11T10:27:25;7.43;;;6.50;;
36709;SDS011;22694;51.040;3.684;2023-02-11T10:29:58;7.03;;;5.80;;
36709;SDS011;22694;51.040;3.684;2023-02-11T10:32:44;7.55;;;6.18;;
36709;SDS011;22694;51.040;3.684;2023-02-11T10:35:16;7.07;;;5.93;;
36709;SDS011;22694;51.040;3.684;2023-02-11T10:37:46;7.75;;;5.78;;
36709;SDS011;22694;51.040;3.684;2023-02-11T10:40:13;8.15;;;6.72;;
36709;SDS011;22694;51.040;3.684;2023-02-11T10:42:48;7.47;;;5.57;;
36709;SDS011;22694;51.040;3.684;2023-02-11T10:45:35;7.07;;;6.38;;
36709;SDS011;22694;51.040;3.684;2023-02-11T10:51:32;8.18;;;6.38;;
36709;SDS011;22694;51.040;3.684;2023-02-11T10:56:39;9.48;;;6.03;;
36709;SDS011;22694;51.040;3.684;2023-02-11T11:07:19;8.60;;;6.88;;
36709;SDS011;22694;51.040;3.684;2023-02-11T11:09:54;7.00;;;5.93;;
36709;SDS011;22694;51.040;3.684;2023-02-11T11:14:55;7.97;;;6.70;;
36709;SDS011;22694;51.040;3.684;2023-02-11T11:17:42;8.18;;;6.25;;
36709;SDS011;22694;51.040;3.684;2023-02-11T11:20:13;8.45;;;6.82;;
36709;SDS011;22694;51.040;3.684;2023-02-11T11:23:06;9.02;;;7.07;;
36709;SDS011;22694;51.040;3.684;2023-02-11T11:25:41;7.25;;;6.45;;
36709;SDS011;22694;51.040;3.684;2023-02-11T11:28:28;7.75;;;6.35;;
36709;SDS011;22694;51.040;3.684;2023-02-11T11:30:55;8.10;;;6.82;;
36709;SDS011;22694;51.040;3.684;2023-02-11T11:33:27;8.25;;;7.18;;
36709;SDS011;22694;51.040;3.684;2023-02-11T11:36:05;8.82;;;7.15;;
36709;SDS011;22694;51.040;3.684;2023-02-11T11:38:35;9.60;;;7.15;;
36709;SDS011;22694;51.040;3.684;2023-02-11T11:41:26;8.85;;;7.15;;
36709;SDS011;22694;51.040;3.684;2023-02-11T11:46:43;9.25;;;6.82;;
36709;SDS011;22694;51.040;3.684;2023-02-11T11:51:44;6.77;;;5.70;;
36709;SDS011;22694;51.040;3.684;2023-02-11T11:54:19;9.38;;;6.32;;
36709;SDS011;22694;51.040;3.684;2023-02-11T11:59:43;10.82;;;7.28;;
36709;SDS011;22694;51.040;3.684;2023-02-11T12:04:54;9.55;;;7.05;;
36709;SDS011;22694;51.040;3.684;2023-02-11T12:15:30;8.20;;;6.93;;
36709;SDS011;22694;51.040;3.684;2023-02-11T12:34:08;8.85;;;6.80;;
36709;SDS011;22694;51.040;3.684;2023-02-11T12:56:29;7.78;;;6.93;;
36709;SDS011;22694;51.040;3.684;2023-02-11T12:58:56;8.88;;;6.70;;
36709;SDS011;22694;51.040;3.684;2023-02-11T13:01:29;8.07;;;6.72;;
36709;SDS011;22694;51.040;3.684;2023-02-11T13:04:07;6.90;;;6.22;;
36709;SDS011;22694;51.040;3.684;2023-02-11T13:06:52;7.28;;;6.25;;
36709;SDS011;22694;51.040;3.684;2023-02-11T13:09:31;7.72;;;6.60;;
36709;SDS011;22694;51.040;3.684;2023-02-11T13:12:02;8.10;;;6.72;;
36709;SDS011;22694;51.040;3.684;2023-02-11T13:14:51;7.38;;;6.60;;
36709;SDS011;22694;51.040;3.684;2023-02-11T13:17:24;8.48;;;7.03;;
36709;SDS011;22694;51.040;3.684;2023-02-11T13:19:57;8.13;;;6.82;;
36709;SDS011;22694;51.040;3.684;2023-02-11T13:22:29;7.55;;;6.85;;
36709;SDS011;22694;51.040;3.684;2023-02-11T13:25:14;8.02;;;6.82;;
36709;SDS011;22694;51.040;3.684;2023-02-11T13:30:29;7.28;;;6.57;;
36709;SDS011;22694;51.040;3.684;2023-02-11T13:35:28;9.45;;;7.43;;
36709;SDS011;22694;51.040;3.684;2023-02-11T13:37:55;7.25;;;6.55;;
36709;SDS011;22694;51.040;3.684;2023-02-11T13:40:24;7.88;;;5.80;;
36709;SDS011;22694;51.040;3.684;2023-02-11T13:42:53;7.47;;;5.78;;
36709;SDS011;22694;51.040;3.684;2023-02-11T13:47:58;7.10;;;6.10;;
36709;SDS011;22694;51.040;3.684;2023-02-11T13:50:27;8.75;;;6.50;;
36709;SDS011;22694;51.040;3.684;2023-02-11T13:52:57;6.15;;;5.47;;
36709;SDS011;22694;51.040;3.684;2023-02-11T13:55:25;7.90;;;6.85;;
36709;SDS011;22694;51.040;3.684;2023-02-11T14:06:16;9.00;;;7.00;;
36709;SDS011;22694;51.040;3.684;2023-02-11T14:19:41;8.35;;;6.43;;
36709;SDS011;22694;51.040;3.684;2023-02-11T14:35:42;6.88;;;5.75;;
36709;SDS011;22694;51.040;3.684;2023-02-11T14:41:42;7.15;;;6.45;;
36709;SDS011;22694;51.040;3.684;2023-02-11T14:44:03;9.23;;;6.32;;
36709;SDS011;22694;51.040;3.684;2023-02-11T14:46:32;6.40;;;5.72;;
36709;SDS011;22694;51.040;3.684;2023-02-11T14:48:59;6.47;;;5.90;;
36709;SDS011;22694;51.040;3.684;2023-02-11T14:51:30;6.80;;;6.10;;
36709;SDS011;22694;51.040;3.684;2023-02-11T14:54:18;8.13;;;6.75;;
36709;SDS011;22694;51.040;3.684;2023-02-11T14:59:37;7.20;;;6.03;;
36709;SDS011;22694;51.040;3.684;2023-02-11T15:02:15;7.80;;;6.65;;
36709;SDS011;22694;51.040;3.684;2023-02-11T15:04:46;7.07;;;5.88;;
36709;SDS011;22694;51.040;3.684;2023-02-11T15:07:11;7.20;;;6.10;;
36709;SDS011;22694;51.040;3.684;2023-02-11T15:09:48;6.50;;;5.80;;
36709;SDS011;22694;51.040;3.684;2023-02-11T15:12:23;6.90;;;6.15;;
36709;SDS011;22694;51.040;3.684;2023-02-11T15:14:52;6.43;;;5.82;;
36709;SDS011;22694;51.040;3.684;2023-02-11T15:17:23;7.82;;;6.38;;
36709;SDS011;22694;51.040;3.684;2023-02-11T15:19:52;6.25;;;5.65;;
36709;SDS011;22694;51.040;3.684;2023-02-11T15:22:25;6.35;;;5.57;;
36709;SDS011;22694;51.040;3.684;2023-02-11T15:25:00;6.35;;;5.75;;
36709;SDS011;22694;51.040;3.684;2023-02-11T15:27:44;6.80;;;5.50;;
36709;SDS011;22694;51.040;3.684;2023-02-11T15:30:26;7.05;;;4.75;;
36709;SDS011;22694;51.040;3.684;2023-02-11T15:32:57;6.60;;;4.10;;
36709;SDS011;22694;51.040;3.684;2023-02-11T15:35:30;5.28;;;4.20;;
36709;SDS011;22694;51.040;3.684;2023-02-11T15:38:00;4.93;;;3.95;;
36709;SDS011;22694;51.040;3.684;2023-02-11T15:40:28;6.93;;;5.18;;
36709;SDS011;22694;51.040;3.684;2023-02-11T15:43:00;6.85;;;5.32;;
36709;SDS011;22694;51.040;3.684;2023-02-11T15:48:00;7.03;;;5.03;;
36709;SDS011;22694;51.040;3.684;2023-02-11T15:50:33;6.35;;;5.00;;
36709;SDS011;22694;51.040;3.684;2023-02-11T15:53:10;6.95;;;5.18;;
36709;SDS011;22694;51.040;3.684;2023-02-11T15:55:40;5.07;;;4.45;;
36709;SDS011;22694;51.040;3.684;2023-02-11T15:58:07;5.15;;;4.65;;
36709;SDS011;22694;51.040;3.684;2023-02-11T16:00:35;5.63;;;4.63;;
36709;SDS011;22694;51.040;3.684;2023-02-11T16:03:02;6.38;;;4.97;;
36709;SDS011;22694;51.040;3.684;2023-02-11T16:07:59;9.73;;;6.53;;
36709;SDS011;22694;51.040;3.684;2023-02-11T16:10:36;8.60;;;7.28;;
36709;SDS011;22694;51.040;3.684;2023-02-11T16:17:59;11.50;;;8.32;;
36709;SDS011;22694;51.040;3.684;2023-02-11T16:20:27;13.13;;;8.57;;
36709;SDS011;22694;51.040;3.684;2023-02-11T16:22:52;10.55;;;8.90;;
36709;SDS011;22694;51.040;3.684;2023-02-11T16:25:19;8.90;;;7.47;;
36709;SDS011;22694;51.040;3.684;2023-02-11T16:27:52;10.43;;;8.65;;
36709;SDS011;22694;51.040;3.684;2023-02-11T16:32:57;9.38;;;7.55;;
36709;SDS011;22694;51.040;3.684;2023-02-11T16:35:23;10.38;;;7.13;;
36709;SDS011;22694;51.040;3.684;2023-02-11T16:37:48;9.00;;;7.68;;
36709;SDS011;22694;51.040;3.684;2023-02-11T16:40:14;9.95;;;7.32;;
36709;SDS011;22694;51.040;3.684;2023-02-11T16:42:40;8.68;;;7.43;;
36709;SDS011;22694;51.040;3.684;2023-02-11T16:45:06;8.50;;;7.60;;
36709;SDS011;22694;51.040;3.684;2023-02-11T16:47:32;8.10;;;7.30;;
36709;SDS011;22694;51.040;3.684;2023-02-11T16:49:59;8.52;;;7.10;;
36709;SDS011;22694;51.040;3.684;2023-02-11T16:52:26;8.80;;;7.28;;
36709;SDS011;22694;51.040;3.684;2023-02-11T16:54:54;9.02;;;6.50;;
36709;SDS011;22694;51.040;3.684;2023-02-11T16:57:22;9.63;;;6.95;;
36709;SDS011;22694;51.040;3.684;2023-02-11T16:59:49;7.82;;;7.07;;
36709;SDS011;22694;51.040;3.684;2023-02-11T17:02:16;7.97;;;6.90;;
36709;SDS011;22694;51.040;3.684;2023-02-11T17:04:46;7.60;;;6.90;;
36709;SDS011;22694;51.040;3.684;2023-02-11T17:07:12;7.75;;;6.78;;
36709;SDS011;22694;51.040;3.684;2023-02-11T17:09:38;8.57;;;7.03;;
36709;SDS011;22694;51.040;3.684;2023-02-11T17:12:04;7.80;;;7.00;;
36709;SDS011;22694;51.040;3.684;2023-02-11T17:14:30;7.00;;;6.32;;
36709;SDS011;22694;51.040;3.684;2023-02-11T17:16:56;10.10;;;7.40;;
36709;SDS011;22694;51.040;3.684;2023-02-11T17:19:21;7.45;;;6.68;;
36709;SDS011;22694;51.040;3.684;2023-02-11T17:21:48;7.13;;;5.97;;
36709;SDS011;22694;51.040;3.684;2023-02-11T17:24:15;7.15;;;5.60;;
36709;SDS011;22694;51.040;3.684;2023-02-11T17:26:42;8.13;;;5.95;;
36709;SDS011;22694;51.040;3.684;2023-02-11T17:29:09;7.38;;;5.65;;
36709;SDS011;22694;51.040;3.684;2023-02-11T17:31:41;8.55;;;5.63;;
36709;SDS011;22694;51.040;3.684;2023-02-11T17:34:07;7.72;;;6.22;;
36709;SDS011;22694;51.040;3.684;2023-02-11T17:36:33;8.18;;;6.43;;
36709;SDS011;22694;51.040;3.684;2023-02-11T17:38:59;9.23;;;6.57;;
36709;SDS011;22694;51.040;3.684;2023-02-11T17:41:25;6.95;;;5.82;;
36709;SDS011;22694;51.040;3.684;2023-02-11T17:43:51;6.80;;;5.80;;
36709;SDS011;22694;51.040;3.684;2023-02-11T17:46:18;6.75;;;6.05;;
36709;SDS011;22694;51.040;3.684;2023-02-11T17:48:43;7.82;;;5.82;;
36709;SDS011;22694;51.040;3.684;2023-02-11T17:51:23;7.78;;;5.88;;
36709;SDS011;22694;51.040;3.684;2023-02-11T17:53:51;9.73;;;5.95;;
36709;SDS011;22694;51.040;3.684;2023-02-11T17:56:17;8.38;;;6.25;;